Terminal Aerodrome Forecast
Issued by NWS Houston/Galveston, TX

Home | Current Version | Previous Version | Text Only | Print | Product List | Glossary On
Versions: 1 2 3 4 5 6 7 8 9 10 11 12 13 14 15 16 17 18 19 20 21 22 23 24 25 26 27 28 29 30 31 32 33 34 35 36 37 38 39 40 41 42 43 44 45 46 47 48 49 50
000
FTUS44 KHGX 180301 AAA
TAFCLL
TAF AMD
KCLL 180301Z 1803/1824 05008KT 6SM -RA BR OVC005
     FM181000 01007KT 4SM -TSRA BR OVC004CB
     FM181200 09003KT 2SM -TSRA BR VCTS OVC002CB
      TEMPO 1815/1818 1SM +SHRA BR BKN004 OVC010
     FM181800 12008KT 6SM -SHRA BR VCTS BKN010 OVC020CB PROB30
      1819/1824 TSRA BKN015CB=

USA.gov is the U.S. government's official web portal to all federal, state and local government web resources and services.